Time;durP1;ratioP1;P1;durP2;ratioP2;P2;SDS_P1;SDS_P2;PMS_P1;PMS_P2;Temp;Humidity;BMP_temperature;BMP_pressure;BME280_temperature;BME280_humidity;BME280_pressure;Samples;Min_cycle;Max_cycle;Signal;HPM_P1;HPM_P2
2022/12/25 00:01:15;;;;;;;14.40;5.57;;;;;;;;;;5007711;28;20036;-74
2022/12/25 00:03:42;;;;;;;17.40;5.60;;;;;;;;;;5027552;28;20473;-74
2022/12/25 00:06:08;;;;;;;19.90;4.95;;;;;;;;;;5008026;28;20482;-74
2022/12/25 00:08:35;;;;;;;15.90;5.20;;;;;;;;;;5010701;28;20053;-74
2022/12/25 00:11:03;;;;;;;15.82;5.43;;;;;;;;;;5025578;28;20112;-74
2022/12/25 00:13:29;;;;;;;15.35;4.72;;;;;;;;;;5023734;28;20037;-74
2022/12/25 00:15:55;;;;;;;14.65;5.35;;;;;;;;;;5027623;28;20038;-75
2022/12/25 00:18:22;;;;;;;16.63;5.10;;;;;;;;;;5025655;28;20850;-75
2022/12/25 00:20:59;;;;;;;11.77;4.82;;;;;;;;;;5027384;28;20021;-74
2022/12/25 00:23:26;;;;;;;12.38;4.90;;;;;;;;;;5026670;28;20025;-74
2022/12/25 00:25:52;;;;;;;15.25;4.90;;;;;;;;;;5026893;28;20433;-74
2022/12/25 00:28:19;;;;;;;16.33;4.38;;;;;;;;;;5027215;28;20045;-74
2022/12/25 00:30:45;;;;;;;16.75;5.00;;;;;;;;;;5025315;28;20029;-75
2022/12/25 00:33:11;;;;;;;13.02;4.95;;;;;;;;;;5026829;28;20033;-74
2022/12/25 00:35:37;;;;;;;13.38;4.65;;;;;;;;;;5027304;28;20033;-74
2022/12/25 00:38:03;;;;;;;16.55;5.22;;;;;;;;;;5022427;28;20028;-75
2022/12/25 00:40:29;;;;;;;14.68;4.75;;;;;;;;;;5023770;28;20037;-76
2022/12/25 00:42:56;;;;;;;13.55;5.60;;;;;;;;;;5026184;28;20848;-74
2022/12/25 00:45:22;;;;;;;13.77;5.30;;;;;;;;;;5023548;28;20513;-74
2022/12/25 00:47:48;;;;;;;15.75;5.72;;;;;;;;;;5022916;28;20470;-74
2022/12/25 00:50:14;;;;;;;14.15;4.60;;;;;;;;;;5024670;28;20595;-74
2022/12/25 00:52:40;;;;;;;15.82;5.60;;;;;;;;;;5025315;28;20034;-76
2022/12/25 00:55:07;;;;;;;15.07;5.03;;;;;;;;;;5021532;28;20022;-74
2022/12/25 00:57:33;;;;;;;16.92;4.88;;;;;;;;;;5023607;28;20133;-74
2022/12/25 00:59:59;;;;;;;10.95;4.35;;;;;;;;;;5021967;28;20033;-74
2022/12/25 01:02:26;;;;;;;16.23;5.00;;;;;;;;;;5019982;28;20026;-74
2022/12/25 01:04:56;;;;;;;12.18;4.38;;;;;;;;;;5021929;28;20026;-74
2022/12/25 01:07:23;;;;;;;11.95;4.70;;;;;;;;;;5019479;28;20729;-74
2022/12/25 01:12:35;;;;;;;15.60;6.18;;;;;;;;;;5026841;28;20444;-74
2022/12/25 01:15:02;;;;;;;13.07;5.30;;;;;;;;;;5022154;28;20113;-74
2022/12/25 01:17:28;;;;;;;17.27;5.95;;;;;;;;;;5022554;28;20021;-74
2022/12/25 01:19:54;;;;;;;16.77;5.85;;;;;;;;;;5027008;28;20100;-75
2022/12/25 01:22:20;;;;;;;16.08;4.97;;;;;;;;;;5026459;28;20028;-74
2022/12/25 01:24:46;;;;;;;15.38;5.63;;;;;;;;;;5024549;28;20036;-74
2022/12/25 01:27:13;;;;;;;18.73;6.20;;;;;;;;;;5025349;28;20087;-74
2022/12/25 01:29:39;;;;;;;18.02;5.38;;;;;;;;;;5022533;28;20043;-75
2022/12/25 01:32:05;;;;;;;12.02;5.32;;;;;;;;;;5021448;28;20033;-74
2022/12/25 01:34:32;;;;;;;14.25;5.07;;;;;;;;;;5024860;28;20021;-74
2022/12/25 01:36:58;;;;;;;18.27;5.80;;;;;;;;;;5026487;28;20617;-75
2022/12/25 01:39:24;;;;;;;13.05;5.20;;;;;;;;;;5023462;28;20042;-75
2022/12/25 01:41:50;;;;;;;14.80;5.43;;;;;;;;;;5021791;28;20018;-74
2022/12/25 01:44:21;;;;;;;16.52;5.68;;;;;;;;;;5022946;28;20110;-74
2022/12/25 01:46:47;;;;;;;17.23;5.97;;;;;;;;;;5024944;28;20044;-74
2022/12/25 01:49:14;;;;;;;23.15;6.80;;;;;;;;;;5015753;28;20251;-74
2022/12/25 01:52:00;;;;;;;19.85;6.35;;;;;;;;;;5011152;28;20691;-74
2022/12/25 01:54:47;;;;;;;20.15;5.95;;;;;;;;;;5021871;28;20033;-74
2022/12/25 01:57:22;;;;;;;22.88;6.30;;;;;;;;;;5023321;28;20417;-76
2022/12/25 01:59:48;;;;;;;14.48;5.28;;;;;;;;;;5003565;28;20463;-74
2022/12/25 02:02:15;;;;;;;17.25;5.53;;;;;;;;;;5024346;28;20017;-75
2022/12/25 02:04:45;;;;;;;23.08;5.85;;;;;;;;;;5023515;28;20109;-75
2022/12/25 02:07:11;;;;;;;16.20;5.97;;;;;;;;;;5021562;28;20025;-76
2022/12/25 02:09:37;;;;;;;15.63;5.97;;;;;;;;;;5007937;28;20032;-74
2022/12/25 02:12:04;;;;;;;18.58;5.13;;;;;;;;;;5008134;28;20819;-75
2022/12/25 02:14:32;;;;;;;11.40;4.70;;;;;;;;;;5023178;28;20037;-75
2022/12/25 02:17:13;;;;;;;14.10;5.20;;;;;;;;;;5019028;28;20030;-75
2022/12/25 02:19:51;;;;;;;16.45;5.28;;;;;;;;;;5005387;28;20257;-74
2022/12/25 02:22:20;;;;;;;13.02;4.95;;;;;;;;;;5019697;28;20047;-75
2022/12/25 02:25:07;;;;;;;17.33;6.22;;;;;;;;;;5023529;28;20027;-75
2022/12/25 02:27:33;;;;;;;15.25;5.47;;;;;;;;;;5027522;28;20056;-74
2022/12/25 02:30:08;;;;;;;21.98;6.18;;;;;;;;;;5022252;28;20026;-76
2022/12/25 02:32:51;;;;;;;16.92;5.25;;;;;;;;;;5018568;28;20017;-76
2022/12/25 02:35:20;;;;;;;10.40;5.10;;;;;;;;;;5028174;28;20017;-76
2022/12/25 02:37:52;;;;;;;15.48;5.22;;;;;;;;;;5023158;28;20029;-75
2022/12/25 02:40:24;;;;;;;13.90;5.55;;;;;;;;;;5025263;28;20029;-76
2022/12/25 03:08:39;;;;;;;11.65;4.85;;;;;;;;;;5024942;28;20052;-74
2022/12/25 03:16:49;;;;;;;9.65;4.35;;;;;;;;;;5024747;28;20103;-73
2022/12/25 03:16:52;;;;;;;15.57;4.65;;;;;;;;;;5022130;28;20037;-74
2022/12/25 03:27:35;;;;;;;17.50;5.50;;;;;;;;;;5024161;28;20402;-74
2022/12/25 03:32:58;;;;;;;14.65;5.07;;;;;;;;;;5023513;28;20075;-74
2022/12/25 03:35:44;;;;;;;13.93;4.65;;;;;;;;;;5019702;28;20033;-74
2022/12/25 03:39:11;;;;;;;8.50;4.05;;;;;;;;;;5019801;28;20029;-74
2022/12/25 04:36:42;;;;;;;15.00;4.47;;;;;;;;;;5023139;28;20036;-74
2022/12/25 04:39:09;;;;;;;14.63;4.68;;;;;;;;;;5024149;28;20080;-75
2022/12/25 04:41:35;;;;;;;9.82;3.85;;;;;;;;;;5024846;28;20029;-74
2022/12/25 04:44:01;;;;;;;11.77;4.32;;;;;;;;;;5022087;28;20091;-75
2022/12/25 04:46:28;;;;;;;13.40;4.82;;;;;;;;;;5023894;28;20074;-76
2022/12/25 04:48:54;;;;;;;11.23;4.65;;;;;;;;;;5024046;28;20378;-75
2022/12/25 04:51:21;;;;;;;13.60;4.10;;;;;;;;;;5023917;28;20496;-76
2022/12/25 04:53:48;;;;;;;15.55;4.80;;;;;;;;;;5024324;28;20548;-76
2022/12/25 04:56:15;;;;;;;20.80;5.03;;;;;;;;;;5033883;28;20022;-75
2022/12/25 04:58:42;;;;;;;12.57;4.80;;;;;;;;;;5022355;28;20042;-77
2022/12/25 05:01:08;;;;;;;10.80;4.30;;;;;;;;;;5023432;28;20021;-77
2022/12/25 05:03:35;;;;;;;11.75;4.82;;;;;;;;;;5023124;28;20068;-74
2022/12/25 05:06:01;;;;;;;12.05;4.13;;;;;;;;;;5006584;28;20024;-74
2022/12/25 05:08:31;;;;;;;12.90;4.65;;;;;;;;;;5022818;28;20079;-74
2022/12/25 05:10:57;;;;;;;14.35;4.88;;;;;;;;;;5023471;28;20025;-74
2022/12/25 05:13:23;;;;;;;12.77;5.00;;;;;;;;;;5023133;28;20051;-74
2022/12/25 05:15:50;;;;;;;6.97;4.43;;;;;;;;;;5023527;28;20389;-76
2022/12/25 05:18:16;;;;;;;19.48;4.85;;;;;;;;;;5022489;28;20014;-74
2022/12/25 05:20:42;;;;;;;11.23;4.97;;;;;;;;;;5023749;28;20026;-74
2022/12/25 05:23:11;;;;;;;13.98;4.72;;;;;;;;;;5022318;28;20048;-74
2022/12/25 05:25:40;;;;;;;18.00;4.72;;;;;;;;;;5026000;28;20133;-74
2022/12/25 05:28:07;;;;;;;12.57;4.68;;;;;;;;;;5022802;28;20111;-74
2022/12/25 05:30:34;;;;;;;16.88;4.70;;;;;;;;;;5021503;28;20022;-75
2022/12/25 05:33:00;;;;;;;12.25;4.50;;;;;;;;;;5012184;28;20029;-74
2022/12/25 05:35:26;;;;;;;12.35;4.07;;;;;;;;;;5022725;28;20048;-74
2022/12/25 05:37:52;;;;;;;11.20;4.15;;;;;;;;;;5023746;28;20024;-74
2022/12/25 05:40:19;;;;;;;7.95;3.28;;;;;;;;;;5026464;28;20040;-74
2022/12/25 05:42:45;;;;;;;12.30;3.55;;;;;;;;;;5021027;28;20022;-74
2022/12/25 05:45:11;;;;;;;11.10;3.97;;;;;;;;;;5023595;28;21866;-74
2022/12/25 05:47:37;;;;;;;10.05;3.95;;;;;;;;;;5022262;28;20045;-74
2022/12/25 05:50:04;;;;;;;9.77;4.05;;;;;;;;;;5018586;28;20026;-74
2022/12/25 05:52:34;;;;;;;14.00;3.90;;;;;;;;;;5022475;28;20428;-74
2022/12/25 05:55:00;;;;;;;10.65;4.53;;;;;;;;;;5022658;28;20033;-74
2022/12/25 05:57:29;;;;;;;13.63;4.22;;;;;;;;;;5022430;28;20389;-74
2022/12/25 05:59:56;;;;;;;14.95;4.78;;;;;;;;;;5022404;28;20033;-74
2022/12/25 06:02:22;;;;;;;10.20;4.07;;;;;;;;;;5012460;28;20133;-74
2022/12/25 06:04:48;;;;;;;15.43;4.90;;;;;;;;;;5022265;28;20029;-74
2022/12/25 06:07:14;;;;;;;14.45;4.45;;;;;;;;;;5022807;28;20029;-74
2022/12/25 06:09:41;;;;;;;12.68;4.80;;;;;;;;;;5020588;28;20044;-75
2022/12/25 06:12:08;;;;;;;13.82;5.05;;;;;;;;;;5021712;28;20026;-74
2022/12/25 06:14:34;;;;;;;10.30;4.22;;;;;;;;;;5025902;28;20037;-75
2022/12/25 06:17:00;;;;;;;14.45;4.32;;;;;;;;;;5024846;28;20021;-75
2022/12/25 06:19:27;;;;;;;10.45;4.10;;;;;;;;;;5022424;28;20102;-74
2022/12/25 06:21:54;;;;;;;11.85;4.43;;;;;;;;;;5021455;28;20033;-74
2022/12/25 06:24:20;;;;;;;13.60;4.70;;;;;;;;;;5026167;28;20032;-75
2022/12/25 06:26:47;;;;;;;11.45;3.90;;;;;;;;;;5024140;28;20038;-74
2022/12/25 06:29:13;;;;;;;12.70;4.13;;;;;;;;;;5020325;28;20021;-74
2022/12/25 06:31:39;;;;;;;6.80;3.25;;;;;;;;;;5022173;28;20076;-75
2022/12/25 06:34:05;;;;;;;8.75;3.65;;;;;;;;;;5022225;28;20644;-77
2022/12/25 06:36:31;;;;;;;6.18;3.45;;;;;;;;;;5022296;28;20494;-75
2022/12/25 06:39:01;;;;;;;9.52;3.88;;;;;;;;;;5004192;28;20582;-74
2022/12/25 06:41:28;;;;;;;9.82;4.10;;;;;;;;;;5021218;28;20025;-74
2022/12/25 06:43:56;;;;;;;9.90;3.88;;;;;;;;;;5033935;28;20097;-74
2022/12/25 06:46:23;;;;;;;8.65;3.90;;;;;;;;;;5028116;28;20710;-75
2022/12/25 06:48:50;;;;;;;9.30;3.97;;;;;;;;;;5019390;28;20026;-75
2022/12/25 06:51:17;;;;;;;12.60;5.15;;;;;;;;;;5032168;28;20432;-73
2022/12/25 06:53:43;;;;;;;12.57;5.68;;;;;;;;;;5022780;28;20068;-74
2022/12/25 06:56:14;;;;;;;16.05;5.35;;;;;;;;;;5021301;28;20133;-74
2022/12/25 06:58:42;;;;;;;10.45;5.65;;;;;;;;;;5019969;28;20041;-75
2022/12/25 07:01:13;;;;;;;24.88;6.70;;;;;;;;;;5021489;28;20106;-74
2022/12/25 07:03:41;;;;;;;17.27;6.03;;;;;;;;;;5027733;28;20032;-74
2022/12/25 07:06:07;;;;;;;24.98;6.30;;;;;;;;;;5025456;28;20035;-77
2022/12/25 07:08:33;;;;;;;14.43;5.25;;;;;;;;;;5021095;28;20034;-75
2022/12/25 07:10:59;;;;;;;14.73;5.32;;;;;;;;;;5020985;28;20022;-75
2022/12/25 07:13:26;;;;;;;11.25;4.80;;;;;;;;;;5020979;28;20022;-74
2022/12/25 07:15:55;;;;;;;12.13;4.65;;;;;;;;;;5021424;28;20501;-76
2022/12/25 07:18:22;;;;;;;15.90;6.72;;;;;;;;;;5023740;28;20659;-75
2022/12/25 07:20:48;;;;;;;12.90;5.10;;;;;;;;;;5021928;28;20037;-75
2022/12/25 07:23:14;;;;;;;14.50;6.53;;;;;;;;;;5019838;28;20032;-75
2022/12/25 07:25:40;;;;;;;13.77;5.60;;;;;;;;;;5020508;28;20540;-75
2022/12/25 07:28:07;;;;;;;17.77;5.20;;;;;;;;;;5020021;28;20038;-75
2022/12/25 07:30:33;;;;;;;15.98;6.00;;;;;;;;;;5021515;28;20056;-74
2022/12/25 07:32:59;;;;;;;14.23;5.75;;;;;;;;;;5003584;28;20041;-75
2022/12/25 07:35:25;;;;;;;10.95;5.28;;;;;;;;;;5021192;28;20029;-75
2022/12/25 07:37:52;;;;;;;18.48;5.70;;;;;;;;;;5019357;28;20474;-75
2022/12/25 07:40:18;;;;;;;13.02;6.07;;;;;;;;;;5021402;28;20048;-74
2022/12/25 07:42:44;;;;;;;12.10;5.22;;;;;;;;;;5027470;28;20057;-75
2022/12/25 07:45:10;;;;;;;13.77;5.15;;;;;;;;;;5022849;28;20036;-75
2022/12/25 07:47:37;;;;;;;14.18;5.95;;;;;;;;;;5007374;28;20052;-75
2022/12/25 07:50:03;;;;;;;9.95;5.38;;;;;;;;;;5024300;28;20433;-75
2022/12/25 07:52:29;;;;;;;18.95;6.13;;;;;;;;;;5020667;28;20037;-75
2022/12/25 07:54:55;;;;;;;19.52;5.60;;;;;;;;;;5019747;28;20029;-75
2022/12/25 07:57:21;;;;;;;11.90;4.80;;;;;;;;;;5031273;28;20436;-75
2022/12/25 07:59:47;;;;;;;19.77;6.32;;;;;;;;;;5021846;28;20032;-75
2022/12/25 08:02:13;;;;;;;11.18;5.25;;;;;;;;;;5004124;28;20022;-75
2022/12/25 08:04:41;;;;;;;14.90;6.85;;;;;;;;;;5023441;28;20042;-75
2022/12/25 08:07:07;;;;;;;17.45;6.03;;;;;;;;;;5033223;28;20033;-76
2022/12/25 08:09:34;;;;;;;17.88;7.47;;;;;;;;;;5009937;28;20053;-75
2022/12/25 08:12:00;;;;;;;22.20;7.38;;;;;;;;;;5025373;28;20029;-75
2022/12/25 08:14:27;;;;;;;15.38;6.05;;;;;;;;;;5023227;28;20041;-75
2022/12/25 08:16:53;;;;;;;14.25;5.65;;;;;;;;;;5025823;28;20029;-75
2022/12/25 08:19:19;;;;;;;12.40;5.05;;;;;;;;;;5024473;28;20029;-75
2022/12/25 08:21:45;;;;;;;17.35;6.53;;;;;;;;;;5022747;28;20026;-75
2022/12/25 08:24:11;;;;;;;10.63;5.53;;;;;;;;;;5023656;28;20018;-75
2022/12/25 08:26:39;;;;;;;16.10;5.85;;;;;;;;;;5023807;28;20049;-75
2022/12/25 08:29:05;;;;;;;14.45;5.30;;;;;;;;;;5024924;28;20029;-75
2022/12/25 08:31:33;;;;;;;12.57;6.38;;;;;;;;;;5026070;28;20029;-75
2022/12/25 08:34:01;;;;;;;15.45;5.25;;;;;;;;;;4994687;28;20044;-76
2022/12/25 08:36:27;;;;;;;13.65;5.05;;;;;;;;;;5024226;28;20064;-75
2022/12/25 08:38:53;;;;;;;12.40;6.03;;;;;;;;;;5022704;28;20055;-75
2022/12/25 08:41:20;;;;;;;13.68;6.18;;;;;;;;;;5004535;28;20148;-76
2022/12/25 08:43:46;;;;;;;15.75;6.45;;;;;;;;;;5024789;28;20022;-75
2022/12/25 08:46:13;;;;;;;14.48;5.85;;;;;;;;;;5027495;28;20032;-75
2022/12/25 08:48:41;;;;;;;9.43;5.45;;;;;;;;;;5032750;28;20031;-75
2022/12/25 08:51:10;;;;;;;17.90;6.60;;;;;;;;;;5022139;28;20061;-75
2022/12/25 08:53:36;;;;;;;17.90;6.30;;;;;;;;;;5023352;28;20020;-75
2022/12/25 08:56:05;;;;;;;12.48;5.68;;;;;;;;;;5023172;28;20032;-75
2022/12/25 08:58:32;;;;;;;18.00;6.88;;;;;;;;;;5025419;28;20009;-75
2022/12/25 09:00:58;;;;;;;18.80;6.28;;;;;;;;;;5034813;28;20419;-75
2022/12/25 09:03:25;;;;;;;13.70;6.38;;;;;;;;;;5022314;28;20029;-75
2022/12/25 09:05:51;;;;;;;19.98;7.65;;;;;;;;;;5023509;28;20073;-75
2022/12/25 09:08:18;;;;;;;13.00;6.57;;;;;;;;;;5023891;28;20214;-75
2022/12/25 09:10:44;;;;;;;12.45;5.95;;;;;;;;;;5022005;28;20092;-75
2022/12/25 09:13:11;;;;;;;17.67;6.20;;;;;;;;;;5005913;28;20029;-74
2022/12/25 09:15:38;;;;;;;15.00;6.45;;;;;;;;;;5035462;28;20074;-80
2022/12/25 09:18:04;;;;;;;18.60;6.97;;;;;;;;;;5027629;28;20036;-80
2022/12/25 09:20:31;;;;;;;17.05;7.13;;;;;;;;;;5022086;28;20068;-79
2022/12/25 09:22:57;;;;;;;20.38;6.90;;;;;;;;;;5030457;28;20021;-78
2022/12/25 09:25:23;;;;;;;15.35;6.78;;;;;;;;;;5023492;28;20393;-75
2022/12/25 09:27:49;;;;;;;12.80;6.82;;;;;;;;;;5023828;28;20141;-74
2022/12/25 09:30:15;;;;;;;10.85;6.25;;;;;;;;;;5023237;28;20014;-75
2022/12/25 09:32:42;;;;;;;16.73;6.88;;;;;;;;;;5023684;28;20032;-75
2022/12/25 09:35:08;;;;;;;12.85;5.93;;;;;;;;;;5022156;28;20025;-76
2022/12/25 09:37:34;;;;;;;14.00;7.07;;;;;;;;;;5023966;28;20025;-74
2022/12/25 09:40:01;;;;;;;14.77;7.10;;;;;;;;;;5005957;28;20498;-75
2022/12/25 09:42:30;;;;;;;15.77;6.95;;;;;;;;;;5022560;28;20048;-74
2022/12/25 09:45:00;;;;;;;14.20;6.78;;;;;;;;;;5022685;28;20035;-75
2022/12/25 09:47:28;;;;;;;16.35;7.45;;;;;;;;;;5022102;28;20017;-75
2022/12/25 09:50:03;;;;;;;14.93;7.82;;;;;;;;;;5023624;28;20521;-75
2022/12/25 09:52:36;;;;;;;10.73;7.13;;;;;;;;;;5035779;28;20021;-75
2022/12/25 09:55:11;;;;;;;18.02;7.43;;;;;;;;;;5023622;28;20537;-76
2022/12/25 09:57:38;;;;;;;13.40;7.55;;;;;;;;;;5021155;28;20025;-75
2022/12/25 10:00:04;;;;;;;21.85;8.98;;;;;;;;;;5030300;28;20098;-75
2022/12/25 10:02:30;;;;;;;18.95;8.45;;;;;;;;;;5021931;28;20036;-74
2022/12/25 10:04:56;;;;;;;15.38;7.10;;;;;;;;;;5021027;28;20093;-74
2022/12/25 10:07:34;;;;;;;22.27;9.73;;;;;;;;;;5004059;28;20042;-75
2022/12/25 10:10:01;;;;;;;18.20;7.60;;;;;;;;;;5019048;28;20025;-76
2022/12/25 10:12:37;;;;;;;19.45;7.93;;;;;;;;;;5021145;28;20120;-76
2022/12/25 10:15:14;;;;;;;18.70;8.00;;;;;;;;;;5019214;28;20018;-75
2022/12/25 10:17:55;;;;;;;19.48;8.50;;;;;;;;;;5017484;28;20033;-75
2022/12/25 10:20:24;;;;;;;15.38;8.50;;;;;;;;;;5020280;28;20141;-75
2022/12/25 10:22:52;;;;;;;22.02;8.98;;;;;;;;;;5013372;28;20017;-74
2022/12/25 10:25:20;;;;;;;14.60;7.78;;;;;;;;;;5017078;28;20033;-75
2022/12/25 10:27:50;;;;;;;20.85;8.82;;;;;;;;;;5016983;28;20046;-76
2022/12/25 10:30:27;;;;;;;18.92;7.68;;;;;;;;;;4999301;28;20034;-74
2022/12/25 10:32:55;;;;;;;17.45;7.97;;;;;;;;;;5022896;28;20074;-75
2022/12/25 10:35:22;;;;;;;20.55;8.27;;;;;;;;;;5021167;28;20510;-76
2022/12/25 10:37:54;;;;;;;16.70;7.72;;;;;;;;;;5022639;28;20029;-75
2022/12/25 10:40:23;;;;;;;15.50;7.13;;;;;;;;;;5022483;28;20515;-75
2022/12/25 10:42:52;;;;;;;18.42;7.63;;;;;;;;;;5022116;28;20763;-75
2022/12/25 10:45:18;;;;;;;11.15;6.25;;;;;;;;;;5020753;28;20029;-75
2022/12/25 10:47:45;;;;;;;17.30;7.72;;;;;;;;;;5022343;28;20021;-75
2022/12/25 10:50:11;;;;;;;17.48;7.80;;;;;;;;;;5027344;28;20025;-80
2022/12/25 10:52:46;;;;;;;16.77;6.88;;;;;;;;;;5022046;28;20550;-76
2022/12/25 10:55:12;;;;;;;19.90;6.68;;;;;;;;;;5021743;28;20679;-76
2022/12/25 10:57:45;;;;;;;27.92;9.10;;;;;;;;;;5024856;28;20903;-71
2022/12/25 11:00:22;;;;;;;19.73;7.70;;;;;;;;;;5021968;28;20136;-71
2022/12/25 11:02:49;;;;;;;15.30;6.15;;;;;;;;;;5024519;28;20377;-72
2022/12/25 11:05:29;;;;;;;15.30;6.15;;;;;;;;;;5024199;28;20018;-71
2022/12/25 11:07:57;;;;;;;16.88;7.68;;;;;;;;;;5023568;28;20025;-71
2022/12/25 11:10:23;;;;;;;15.00;6.68;;;;;;;;;;5033839;28;20040;-71
2022/12/25 11:12:50;;;;;;;20.58;7.00;;;;;;;;;;5034930;28;20369;-71
2022/12/25 11:15:35;;;;;;;22.05;7.60;;;;;;;;;;5032759;28;20021;-70
2022/12/25 11:18:02;;;;;;;20.58;8.30;;;;;;;;;;5021799;28;20377;-71
2022/12/25 11:20:28;;;;;;;25.45;8.95;;;;;;;;;;5023339;28;20131;-71
2022/12/25 11:22:54;;;;;;;12.60;6.78;;;;;;;;;;5023259;28;20453;-71
2022/12/25 11:25:22;;;;;;;21.00;7.32;;;;;;;;;;5041576;28;20094;-71
2022/12/25 11:28:04;;;;;;;15.88;7.00;;;;;;;;;;5044361;28;20477;-71
2022/12/25 11:30:32;;;;;;;18.52;7.18;;;;;;;;;;5029492;28;20047;-72
2022/12/25 11:33:00;;;;;;;15.68;7.78;;;;;;;;;;5025792;28;20032;-71
2022/12/25 11:35:30;;;;;;;18.73;8.15;;;;;;;;;;5024973;28;20030;-77
2022/12/25 11:37:56;;;;;;;16.85;8.30;;;;;;;;;;5025110;28;20021;-71
2022/12/25 11:40:39;;;;;;;19.05;7.70;;;;;;;;;;5044370;28;20074;-71
2022/12/25 11:43:11;;;;;;;15.77;7.03;;;;;;;;;;5047354;28;20024;-71
2022/12/25 11:45:43;;;;;;;16.48;7.18;;;;;;;;;;5048652;28;20104;-72
2022/12/25 11:48:18;;;;;;;17.25;7.82;;;;;;;;;;5048588;28;20112;-71
2022/12/25 11:50:47;;;;;;;14.73;7.32;;;;;;;;;;5028511;28;20540;-72
2022/12/25 11:53:17;;;;;;;15.98;6.90;;;;;;;;;;5007693;28;20021;-72
2022/12/25 11:55:44;;;;;;;23.60;8.02;;;;;;;;;;5026662;28;20025;-71
2022/12/25 11:58:15;;;;;;;13.82;6.80;;;;;;;;;;5028020;28;20029;-71
2022/12/25 12:00:42;;;;;;;14.40;6.25;;;;;;;;;;5027380;28;20041;-72
2022/12/25 12:03:27;;;;;;;17.77;7.18;;;;;;;;;;5028607;28;20025;-72
2022/12/25 12:05:53;;;;;;;17.83;6.93;;;;;;;;;;5027457;28;20025;-73
2022/12/25 12:08:19;;;;;;;14.38;7.10;;;;;;;;;;5026592;28;20554;-71
2022/12/25 12:10:57;;;;;;;14.52;6.22;;;;;;;;;;5029524;28;20029;-71
2022/12/25 12:13:35;;;;;;;16.40;7.80;;;;;;;;;;5024285;28;20517;-71
2022/12/25 12:16:04;;;;;;;19.00;7.50;;;;;;;;;;5024310;28;20044;-71
2022/12/25 12:18:31;;;;;;;13.98;6.97;;;;;;;;;;5024617;28;20052;-70
2022/12/25 12:21:16;;;;;;;16.15;7.57;;;;;;;;;;5027848;28;20041;-70
2022/12/25 12:23:49;;;;;;;19.27;7.82;;;;;;;;;;5025234;28;20365;-71
2022/12/25 12:26:22;;;;;;;18.45;6.60;;;;;;;;;;5021288;28;20033;-73
2022/12/25 12:28:49;;;;;;;20.55;8.10;;;;;;;;;;5008523;28;20032;-70
2022/12/25 12:31:16;;;;;;;17.73;8.48;;;;;;;;;;5027067;28;20033;-73
2022/12/25 12:33:48;;;;;;;14.63;6.78;;;;;;;;;;5027504;28;20092;-73
2022/12/25 12:36:15;;;;;;;19.02;7.28;;;;;;;;;;5027626;28;20021;-70
2022/12/25 12:38:43;;;;;;;15.63;8.80;;;;;;;;;;5027563;28;20041;-72
2022/12/25 12:41:10;;;;;;;21.50;9.52;;;;;;;;;;5027210;28;20032;-72
2022/12/25 12:43:36;;;;;;;17.02;7.72;;;;;;;;;;5022393;28;20030;-69
2022/12/25 12:46:04;;;;;;;11.68;7.50;;;;;;;;;;5024755;28;20112;-73
2022/12/25 12:48:37;;;;;;;21.75;7.68;;;;;;;;;;5021743;28;20037;-70
2022/12/25 12:51:05;;;;;;;14.00;6.85;;;;;;;;;;5022335;28;20029;-75
2022/12/25 12:53:33;;;;;;;15.18;6.85;;;;;;;;;;5022305;28;20030;-70
2022/12/25 12:56:09;;;;;;;13.27;7.25;;;;;;;;;;5026883;28;20025;-70
2022/12/25 12:58:36;;;;;;;29.63;15.10;;;;;;;;;;5026961;28;20075;-71
2022/12/25 13:01:11;;;;;;;21.20;9.07;;;;;;;;;;5026653;28;20100;-74
2022/12/25 13:03:40;;;;;;;15.95;7.40;;;;;;;;;;5005321;28;20429;-71
2022/12/25 13:06:17;;;;;;;15.30;7.40;;;;;;;;;;5025060;28;20025;-72
2022/12/25 13:08:46;;;;;;;24.67;8.68;;;;;;;;;;5026689;28;20072;-76
2022/12/25 13:11:19;;;;;;;13.55;6.63;;;;;;;;;;5020840;28;20484;-71
2022/12/25 13:13:46;;;;;;;11.48;6.45;;;;;;;;;;5024480;28;20072;-79
2022/12/25 13:16:16;;;;;;;20.80;12.13;;;;;;;;;;5007229;28;20033;-73
2022/12/25 13:18:42;;;;;;;27.67;12.48;;;;;;;;;;5026138;28;20036;-73
2022/12/25 13:21:15;;;;;;;20.30;9.45;;;;;;;;;;5029600;28;20446;-71
2022/12/25 13:23:41;;;;;;;19.83;8.57;;;;;;;;;;5031691;28;20044;-71
2022/12/25 13:26:10;;;;;;;17.35;7.13;;;;;;;;;;5038368;28;20030;-75
2022/12/25 13:28:37;;;;;;;14.80;6.60;;;;;;;;;;5025902;28;20045;-71
2022/12/25 13:31:05;;;;;;;14.85;5.88;;;;;;;;;;5024765;28;20029;-71
2022/12/25 13:33:32;;;;;;;12.93;6.05;;;;;;;;;;5026094;28;20086;-71
2022/12/25 13:35:58;;;;;;;14.65;5.68;;;;;;;;;;5026999;28;20035;-71
2022/12/25 13:38:27;;;;;;;12.10;6.28;;;;;;;;;;5024769;28;20036;-72
2022/12/25 13:43:41;;;;;;;12.35;5.38;;;;;;;;;;5021759;28;20044;-72
2022/12/25 13:46:11;;;;;;;10.75;5.22;;;;;;;;;;5024927;28;20028;-78
2022/12/25 13:48:37;;;;;;;14.35;6.03;;;;;;;;;;5007441;28;20486;-76
2022/12/25 13:51:03;;;;;;;15.93;5.78;;;;;;;;;;5040887;28;20021;-72
2022/12/25 13:53:29;;;;;;;13.82;6.07;;;;;;;;;;5014232;28;20435;-72
2022/12/25 13:55:58;;;;;;;13.77;5.15;;;;;;;;;;5029657;28;20082;-76
2022/12/25 13:58:26;;;;;;;10.43;6.13;;;;;;;;;;5037090;28;20116;-76
2022/12/25 14:00:53;;;;;;;11.32;5.68;;;;;;;;;;5020965;28;20381;-74
2022/12/25 14:03:21;;;;;;;8.27;4.75;;;;;;;;;;5024254;28;20025;-71
2022/12/25 14:05:55;;;;;;;11.65;4.80;;;;;;;;;;5018375;28;20377;-72
2022/12/25 14:08:23;;;;;;;16.55;6.20;;;;;;;;;;5026183;28;20041;-72
2022/12/25 14:10:50;;;;;;;11.77;4.75;;;;;;;;;;5026191;28;20104;-72
2022/12/25 14:13:17;;;;;;;9.57;4.75;;;;;;;;;;5025510;28;20587;-72
2022/12/25 14:15:45;;;;;;;13.23;5.10;;;;;;;;;;5005787;28;20595;-72
2022/12/25 14:18:15;;;;;;;9.38;4.82;;;;;;;;;;5041503;28;20041;-74
2022/12/25 14:20:42;;;;;;;10.82;4.18;;;;;;;;;;5025980;28;20108;-72
2022/12/25 14:23:14;;;;;;;13.45;4.65;;;;;;;;;;5025231;28;20026;-71
2022/12/25 14:25:42;;;;;;;9.50;4.60;;;;;;;;;;5030243;28;20582;-75
2022/12/25 14:28:17;;;;;;;9.40;4.53;;;;;;;;;;5027504;28;20051;-73
2022/12/25 14:30:43;;;;;;;8.23;4.50;;;;;;;;;;5029977;28;20052;-75
2022/12/25 14:33:14;;;;;;;13.38;5.05;;;;;;;;;;5032485;28;20021;-71
2022/12/25 14:35:40;;;;;;;8.07;4.10;;;;;;;;;;5025686;28;20091;-71
2022/12/25 14:38:07;;;;;;;8.70;5.20;;;;;;;;;;5023450;28;20033;-72
2022/12/25 14:40:34;;;;;;;9.25;4.63;;;;;;;;;;5036660;28;20646;-70
2022/12/25 14:43:05;;;;;;;10.23;5.68;;;;;;;;;;5045137;28;20028;-70
2022/12/25 14:45:37;;;;;;;9.30;5.20;;;;;;;;;;5036096;28;20477;-73
2022/12/25 14:48:17;;;;;;;11.68;5.05;;;;;;;;;;5019295;28;20075;-72
2022/12/25 14:50:52;;;;;;;15.98;5.60;;;;;;;;;;5018123;28;20041;-70
2022/12/25 14:53:23;;;;;;;15.35;5.72;;;;;;;;;;5023737;28;20095;-70
2022/12/25 14:55:51;;;;;;;10.48;5.10;;;;;;;;;;5022424;28;20032;-76
2022/12/25 14:58:22;;;;;;;13.38;5.60;;;;;;;;;;5023256;28;20035;-70
2022/12/25 15:01:01;;;;;;;13.95;6.15;;;;;;;;;;5024472;28;20045;-74
2022/12/25 15:03:34;;;;;;;16.55;5.35;;;;;;;;;;5023891;28;20065;-70
2022/12/25 15:06:02;;;;;;;17.15;6.50;;;;;;;;;;5023017;28;20044;-70
2022/12/25 15:08:29;;;;;;;13.63;5.28;;;;;;;;;;5026145;28;20056;-70
2022/12/25 15:10:56;;;;;;;13.30;5.78;;;;;;;;;;5030412;28;20017;-74
2022/12/25 15:13:22;;;;;;;14.98;4.90;;;;;;;;;;5023012;28;20048;-70
2022/12/25 15:15:54;;;;;;;9.95;5.65;;;;;;;;;;5024479;28;20520;-68
2022/12/25 15:18:21;;;;;;;21.30;6.07;;;;;;;;;;5024324;28;20068;-76
2022/12/25 15:20:51;;;;;;;10.55;5.25;;;;;;;;;;5023617;28;20049;-75
2022/12/25 15:23:18;;;;;;;12.93;6.30;;;;;;;;;;5020393;28;20378;-72
2022/12/25 15:25:46;;;;;;;10.27;5.63;;;;;;;;;;5024396;28;20055;-78
2022/12/25 15:28:12;;;;;;;11.00;5.75;;;;;;;;;;5006320;28;20041;-70
2022/12/25 15:30:38;;;;;;;14.02;6.43;;;;;;;;;;5006795;28;20036;-70
2022/12/25 15:33:05;;;;;;;11.40;5.68;;;;;;;;;;5021645;28;20501;-71
2022/12/25 15:35:32;;;;;;;18.05;6.68;;;;;;;;;;5022741;28;20022;-70
2022/12/25 15:37:58;;;;;;;11.63;6.28;;;;;;;;;;5020291;28;20029;-76
2022/12/25 15:40:25;;;;;;;12.90;6.78;;;;;;;;;;5004159;28;20132;-79
2022/12/25 15:42:51;;;;;;;17.00;6.97;;;;;;;;;;5004672;28;20036;-77
2022/12/25 15:45:22;;;;;;;16.02;5.55;;;;;;;;;;5023949;28;20033;-72
2022/12/25 15:47:48;;;;;;;15.90;5.97;;;;;;;;;;5013467;28;20080;-69
2022/12/25 15:50:15;;;;;;;12.90;6.22;;;;;;;;;;5018166;28;20032;-72
2022/12/25 15:52:42;;;;;;;12.13;5.22;;;;;;;;;;5023277;28;20036;-69
2022/12/25 15:55:08;;;;;;;12.57;5.35;;;;;;;;;;5020662;28;20044;-71
2022/12/25 15:57:35;;;;;;;9.30;5.00;;;;;;;;;;5022021;28;20523;-70
2022/12/25 16:00:02;;;;;;;8.88;5.10;;;;;;;;;;5029803;28;20116;-71
2022/12/25 16:02:28;;;;;;;11.57;6.20;;;;;;;;;;5043646;28;20108;-71
2022/12/25 16:04:54;;;;;;;12.57;6.68;;;;;;;;;;5021738;28;20032;-71
2022/12/25 16:07:22;;;;;;;11.57;6.32;;;;;;;;;;5003764;28;20045;-71
2022/12/25 16:09:48;;;;;;;13.48;6.25;;;;;;;;;;5024043;28;20057;-73
2022/12/25 16:12:14;;;;;;;14.23;6.65;;;;;;;;;;5024334;28;20032;-70
2022/12/25 16:14:41;;;;;;;9.80;6.22;;;;;;;;;;5025566;28;20308;-69
2022/12/25 16:17:07;;;;;;;11.63;6.18;;;;;;;;;;5023977;28;20018;-78
2022/12/25 16:19:33;;;;;;;13.43;6.75;;;;;;;;;;5022458;28;20042;-71